createdAt,value
2019-06-20T00:00:18.305Z,95143
2019-06-20T00:01:27.481Z,95143
2019-06-20T00:02:37.003Z,95140
2019-06-20T00:03:46.503Z,95145
2019-06-20T00:04:56.009Z,95140
2019-06-20T00:06:05.519Z,95148
2019-06-20T00:07:15.043Z,95146
2019-06-20T00:08:24.550Z,95141
2019-06-20T00:09:34.077Z,95141
2019-06-20T00:10:43.839Z,95147
2019-06-20T00:11:54.103Z,95150
2019-06-20T00:13:03.620Z,95141
2019-06-20T00:14:13.142Z,95142
2019-06-20T00:15:22.654Z,95149
2019-06-20T00:16:32.152Z,95149
2019-06-20T00:17:42.685Z,95147
2019-06-20T00:18:52.184Z,95157
2019-06-20T00:20:01.696Z,95161
2019-06-20T00:21:11.210Z,95157
2019-06-20T00:22:20.804Z,95164
2019-06-20T00:23:30.257Z,95160
2019-06-20T00:24:39.765Z,95157
2019-06-20T00:25:49.277Z,95161
2019-06-20T00:26:58.782Z,95165
2019-06-20T00:28:08.307Z,95161
2019-06-20T00:29:17.810Z,95169
2019-06-20T00:30:27.333Z,95166
2019-06-20T00:31:36.828Z,95163
2019-06-20T00:32:46.366Z,95161
2019-06-20T00:33:55.880Z,95162
2019-06-20T00:35:05.411Z,95172
2019-06-20T00:36:14.918Z,95188
2019-06-20T00:37:24.440Z,95171
2019-06-20T00:38:33.959Z,95160
2019-06-20T00:39:43.460Z,95163
2019-06-20T00:40:52.973Z,95166
2019-06-20T00:42:02.480Z,95187
2019-06-20T00:43:17.245Z,95167
2019-06-20T00:44:21.480Z,95172
2019-06-20T00:45:30.983Z,95171
2019-06-20T00:46:40.511Z,95168
2019-06-20T00:47:50.055Z,95164
2019-06-20T00:48:59.563Z,95171
2019-06-20T00:50:09.076Z,95171
2019-06-20T00:51:18.600Z,95167
2019-06-20T00:52:28.120Z,95182
2019-06-20T00:53:37.626Z,95174
2019-06-20T00:54:47.139Z,95180
2019-06-20T00:55:56.649Z,95178
2019-06-20T00:57:06.172Z,95186
2019-06-20T00:58:15.682Z,95180
2019-06-20T00:59:25.210Z,95185
2019-06-20T01:00:34.746Z,95173
2019-06-20T01:01:44.256Z,95186
2019-06-20T01:02:53.774Z,95182
2019-06-20T01:04:03.306Z,95188
2019-06-20T01:05:12.791Z,95190
2019-06-20T01:06:22.307Z,95199
2019-06-20T01:07:31.831Z,95189
2019-06-20T01:08:41.353Z,95199
2019-06-20T01:09:50.865Z,95205
2019-06-20T01:11:00.388Z,95194
2019-06-20T01:12:09.896Z,95189
2019-06-20T01:13:32.443Z,95192
2019-06-20T01:14:29.931Z,95192
2019-06-20T01:15:39.432Z,95199
2019-06-20T01:16:48.939Z,95205
2019-06-20T01:17:58.462Z,95202
2019-06-20T01:19:07.967Z,95191
2019-06-20T01:20:17.481Z,95211
2019-06-20T01:21:27.008Z,95207
2019-06-20T01:22:36.525Z,95211
2019-06-20T01:23:46.029Z,95205
2019-06-20T01:24:55.539Z,95206
2019-06-20T01:26:05.056Z,95190
2019-06-20T01:27:14.562Z,95201
2019-06-20T01:28:24.083Z,95198
2019-06-20T01:29:33.601Z,95212
2019-06-20T01:30:43.119Z,95198
2019-06-20T01:31:52.631Z,95209
2019-06-20T01:33:02.154Z,95201
2019-06-20T01:34:11.662Z,95202
2019-06-20T01:35:21.167Z,95209
2019-06-20T01:36:30.675Z,95230
2019-06-20T01:37:40.200Z,95218
2019-06-20T01:38:49.706Z,95226
2019-06-20T01:39:59.216Z,95230
2019-06-20T01:41:08.732Z,95225
2019-06-20T01:42:18.229Z,95222
2019-06-20T01:43:27.741Z,95228
2019-06-20T01:44:38.248Z,95232
2019-06-20T01:45:47.768Z,95224
2019-06-20T01:46:57.269Z,95243
2019-06-20T01:48:06.793Z,95232
2019-06-20T01:49:16.306Z,95226
2019-06-20T01:50:25.817Z,95239
2019-06-20T01:51:35.329Z,95233
2019-06-20T01:52:44.870Z,95237
2019-06-20T01:53:54.402Z,95237
2019-06-20T01:55:03.911Z,95236
2019-06-20T01:56:13.433Z,95232
2019-06-20T01:57:22.934Z,95229
2019-06-20T01:58:32.461Z,95234
2019-06-20T01:59:41.985Z,95237
2019-06-20T02:00:51.487Z,95235
2019-06-20T02:02:01.005Z,95234
2019-06-20T02:03:10.527Z,95235
2019-06-20T02:04:20.079Z,95234
2019-06-20T02:05:29.529Z,95233
2019-06-20T02:06:39.038Z,95233
2019-06-20T02:07:48.547Z,95237
2019-06-20T02:08:58.100Z,95235
2019-06-20T02:10:07.606Z,95243
2019-06-20T02:11:17.110Z,95234
2019-06-20T02:12:26.622Z,95235
2019-06-20T02:13:36.160Z,95230
2019-06-20T02:14:45.684Z,95238
2019-06-20T02:15:55.178Z,95237
2019-06-20T02:17:04.713Z,95248
2019-06-20T02:18:14.224Z,95251
2019-06-20T02:19:23.736Z,95259
2019-06-20T02:20:33.249Z,95263
2019-06-20T02:21:42.763Z,95263
2019-06-20T02:22:52.262Z,95269
2019-06-20T02:24:01.792Z,95277
2019-06-20T02:25:11.304Z,95280
2019-06-20T02:26:20.815Z,95280
2019-06-20T02:27:30.324Z,95282
2019-06-20T02:28:39.844Z,95278
2019-06-20T02:29:49.359Z,95271
2019-06-20T02:30:58.873Z,95267
2019-06-20T02:32:08.382Z,95265
2019-06-20T02:33:17.902Z,95270
2019-06-20T02:34:27.433Z,95270
2019-06-20T02:35:36.933Z,95275
2019-06-20T02:36:46.447Z,95270
2019-06-20T02:37:55.944Z,95268
2019-06-20T02:39:05.481Z,95265
2019-06-20T02:40:14.982Z,95265
2019-06-20T02:41:24.493Z,95263
2019-06-20T02:42:34.004Z,95261
2019-06-20T02:43:43.526Z,95262
2019-06-20T02:44:53.038Z,95261
2019-06-20T02:46:02.547Z,95259
2019-06-20T02:47:12.066Z,95257
2019-06-20T02:48:21.584Z,95254
2019-06-20T02:49:31.095Z,95251
2019-06-20T02:50:40.600Z,95249
2019-06-20T02:51:50.121Z,95247
2019-06-20T02:52:59.624Z,95250
2019-06-20T02:54:09.152Z,95250
2019-06-20T02:55:18.665Z,95252
2019-06-20T02:56:28.169Z,95253
2019-06-20T02:57:37.674Z,95249
2019-06-20T02:58:47.202Z,95253
2019-06-20T02:59:56.706Z,95248
2019-06-20T03:01:06.215Z,95251
2019-06-20T03:02:15.715Z,95250
2019-06-20T03:03:25.252Z,95249
2019-06-20T03:04:34.768Z,95250
2019-06-20T03:05:44.269Z,95246
2019-06-20T03:06:53.777Z,95245
2019-06-20T03:08:03.295Z,95243
2019-06-20T03:09:12.807Z,95248
2019-06-20T03:10:22.318Z,95244
2019-06-20T03:11:31.831Z,95245
2019-06-20T03:12:41.350Z,95238
2019-06-20T03:13:50.876Z,95234
2019-06-20T03:15:00.389Z,95231
2019-06-20T03:16:09.897Z,95228
2019-06-20T03:17:19.395Z,95222
2019-06-20T03:18:28.934Z,95219
2019-06-20T03:19:38.437Z,95213
2019-06-20T03:20:47.951Z,95212
2019-06-20T03:21:57.454Z,95212
2019-06-20T03:23:06.969Z,95210
2019-06-20T03:24:16.497Z,95209
2019-06-20T03:25:26.033Z,95205
2019-06-20T03:26:35.536Z,95210
2019-06-20T03:27:45.084Z,95211
2019-06-20T03:28:54.585Z,95206
2019-06-20T03:30:04.101Z,95203
2019-06-20T03:31:13.600Z,95205
2019-06-20T03:32:23.111Z,95212
2019-06-20T03:33:32.625Z,95214
2019-06-20T03:34:42.144Z,95224
2019-06-20T03:35:51.766Z,95230
2019-06-20T03:37:01.268Z,95232
2019-06-20T03:38:10.706Z,95236
2019-06-20T03:39:20.237Z,95245
2019-06-20T03:40:29.760Z,95248
2019-06-20T03:41:39.267Z,95257
2019-06-20T03:42:48.777Z,95255
2019-06-20T03:43:59.143Z,95253
2019-06-20T03:45:07.798Z,95252
2019-06-20T03:46:17.305Z,95256
2019-06-20T03:47:26.816Z,95257
2019-06-20T03:48:36.317Z,95256
2019-06-20T03:49:45.845Z,95255
2019-06-20T03:50:55.361Z,95254
2019-06-20T03:52:04.899Z,95256
2019-06-20T03:53:14.404Z,95247
2019-06-20T03:54:23.923Z,95252
2019-06-20T03:55:33.434Z,95252
2019-06-20T03:56:42.948Z,95246
2019-06-20T03:57:52.457Z,95243
2019-06-20T03:59:02.980Z,95245
2019-06-20T04:00:12.488Z,95259
2019-06-20T04:01:22.001Z,95261
2019-06-20T04:02:31.519Z,95269
2019-06-20T04:03:41.022Z,95268
2019-06-20T04:04:50.549Z,95269
2019-06-20T04:06:00.066Z,95267
2019-06-20T04:07:09.576Z,95267
2019-06-20T04:08:19.074Z,95266
2019-06-20T04:09:28.596Z,95270
2019-06-20T04:10:38.105Z,95265
2019-06-20T04:11:47.615Z,95269
2019-06-20T04:12:57.127Z,95267
2019-06-20T04:14:06.655Z,95264
2019-06-20T04:15:19.268Z,95264
2019-06-20T04:16:25.650Z,95265
2019-06-20T04:17:35.158Z,95261
2019-06-20T04:18:44.656Z,95263
2019-06-20T04:19:54.185Z,95264
2019-06-20T04:21:03.706Z,95265
2019-06-20T04:22:13.227Z,95262
2019-06-20T04:23:22.735Z,95261
2019-06-20T04:24:32.264Z,95264
2019-06-20T04:25:41.779Z,95268
2019-06-20T04:26:51.292Z,95265
2019-06-20T04:28:00.799Z,95271
2019-06-20T04:29:10.323Z,95266
2019-06-20T04:30:19.856Z,95269
2019-06-20T04:31:29.348Z,95271
2019-06-20T04:32:38.863Z,95277
2019-06-20T04:33:48.386Z,95271
2019-06-20T04:34:57.903Z,95279
2019-06-20T04:36:07.408Z,95287
2019-06-20T04:37:16.919Z,95287
2019-06-20T04:38:26.428Z,95278
2019-06-20T04:39:35.954Z,95277
2019-06-20T04:40:45.458Z,95279
2019-06-20T04:41:54.977Z,95282
2019-06-20T04:43:04.491Z,95284
2019-06-20T04:44:14.017Z,95286
2019-06-20T04:45:34.464Z,95294
2019-06-20T04:46:33.994Z,95295
2019-06-20T04:47:43.505Z,95296
2019-06-20T04:48:53.013Z,95299
2019-06-20T04:50:02.538Z,95298
2019-06-20T04:51:12.044Z,95303
2019-06-20T04:52:21.564Z,95303
2019-06-20T04:53:31.064Z,95305
2019-06-20T04:54:40.586Z,95311
2019-06-20T04:55:50.102Z,95309
2019-06-20T04:56:59.613Z,95308
2019-06-20T04:58:09.123Z,95310
2019-06-20T04:59:18.668Z,95306
2019-06-20T05:00:28.186Z,95312
2019-06-20T05:01:37.706Z,95310
2019-06-20T05:02:47.224Z,95312
2019-06-20T05:03:56.748Z,95308
2019-06-20T05:05:06.286Z,95310
2019-06-20T05:06:15.801Z,95310
2019-06-20T05:07:25.308Z,95309
2019-06-20T05:08:34.820Z,95311
2019-06-20T05:09:44.346Z,95314
2019-06-20T05:10:53.855Z,95315
2019-06-20T05:12:03.366Z,95316
2019-06-20T05:13:12.868Z,95319
2019-06-20T05:14:22.398Z,95315
2019-06-20T05:15:31.923Z,95316
2019-06-20T05:16:42.406Z,95316
2019-06-20T05:17:51.926Z,95318
2019-06-20T05:19:01.442Z,95316
2019-06-20T05:20:10.975Z,95322
2019-06-20T05:21:22.440Z,95318
2019-06-20T05:22:29.966Z,95313
2019-06-20T05:23:39.474Z,95305
2019-06-20T05:24:49.050Z,95309
2019-06-20T05:25:58.521Z,95314
2019-06-20T05:27:08.035Z,95314
2019-06-20T05:28:17.545Z,95314
2019-06-20T05:29:27.052Z,95315
2019-06-20T05:30:36.596Z,95314
2019-06-20T05:31:46.106Z,95311
2019-06-20T05:32:55.616Z,95311
2019-06-20T05:34:05.128Z,95316
2019-06-20T05:35:14.648Z,95315
2019-06-20T05:36:24.154Z,95312
2019-06-20T05:37:33.660Z,95323
2019-06-20T05:38:43.177Z,95321
2019-06-20T05:39:52.715Z,95322
2019-06-20T05:41:02.239Z,95324
2019-06-20T05:42:11.742Z,95324
2019-06-20T05:43:21.250Z,95324
2019-06-20T05:44:30.775Z,95322
2019-06-20T05:45:43.360Z,95326
2019-06-20T05:46:50.791Z,95332
2019-06-20T05:48:01.284Z,95332
2019-06-20T05:49:10.783Z,95334
2019-06-20T05:50:20.313Z,95328
2019-06-20T05:51:29.818Z,95331
2019-06-20T05:52:40.321Z,95332
2019-06-20T05:53:49.828Z,95333
2019-06-20T05:54:59.358Z,95339
2019-06-20T05:56:08.873Z,95338
2019-06-20T05:57:18.378Z,95339
2019-06-20T05:58:27.905Z,95339
2019-06-20T05:59:37.425Z,95342
2019-06-20T06:00:46.943Z,95345
2019-06-20T06:01:56.579Z,95345
2019-06-20T06:03:07.210Z,95346
2019-06-20T06:04:16.426Z,95348
2019-06-20T06:05:25.945Z,95348
2019-06-20T06:06:35.456Z,95350
2019-06-20T06:07:44.970Z,95356
2019-06-20T06:08:54.476Z,95360
2019-06-20T06:10:05.478Z,95355
2019-06-20T06:11:13.495Z,95361
2019-06-20T06:12:23.014Z,95360
2019-06-20T06:13:32.543Z,95361
2019-06-20T06:14:42.046Z,95360
2019-06-20T06:15:51.573Z,95362
2019-06-20T06:17:01.085Z,95359
2019-06-20T06:18:10.590Z,95356
2019-06-20T06:19:20.104Z,95350
2019-06-20T06:20:29.632Z,95353
2019-06-20T06:21:39.137Z,95353
2019-06-20T06:22:48.648Z,95347
2019-06-20T06:23:58.153Z,95353
2019-06-20T06:25:07.685Z,95350
2019-06-20T06:26:17.190Z,95353
2019-06-20T06:27:26.693Z,95359
2019-06-20T06:28:36.202Z,95357
2019-06-20T06:29:45.716Z,95360
2019-06-20T06:30:55.257Z,95356
2019-06-20T06:32:04.765Z,95354
2019-06-20T06:33:14.281Z,95356
2019-06-20T06:34:23.785Z,95355
2019-06-20T06:35:33.310Z,95354
2019-06-20T06:36:42.814Z,95351
2019-06-20T06:37:52.326Z,95356
2019-06-20T06:39:01.843Z,95355
2019-06-20T06:40:11.380Z,95357
2019-06-20T06:41:20.906Z,95355
2019-06-20T06:42:30.399Z,95360
2019-06-20T06:43:41.833Z,95355
2019-06-20T06:44:49.436Z,95353
2019-06-20T06:45:58.965Z,95355
2019-06-20T06:47:08.472Z,95354
2019-06-20T06:48:17.981Z,95358
2019-06-20T06:49:27.482Z,95357
2019-06-20T06:50:37.013Z,95357
2019-06-20T06:51:46.528Z,95359
2019-06-20T06:52:56.033Z,95353
2019-06-20T06:54:05.543Z,95359
2019-06-20T06:55:15.068Z,95365
2019-06-20T06:56:24.579Z,95367
2019-06-20T06:57:34.088Z,95369
2019-06-20T06:58:43.615Z,95368
2019-06-20T06:59:53.128Z,95373
2019-06-20T07:01:02.742Z,95373
2019-06-20T07:02:13.134Z,95374
2019-06-20T07:03:22.644Z,95373
2019-06-20T07:04:32.161Z,95369
2019-06-20T07:05:41.738Z,95371
2019-06-20T07:06:51.250Z,95369
2019-06-20T07:08:00.766Z,95374
2019-06-20T07:09:10.278Z,95373
2019-06-20T07:10:19.800Z,95376
2019-06-20T07:11:29.309Z,95376
2019-06-20T07:12:38.823Z,95373
2019-06-20T07:13:48.386Z,95375
2019-06-20T07:14:57.908Z,95374
2019-06-20T07:16:07.434Z,95379
2019-06-20T07:17:16.991Z,95379
2019-06-20T07:18:26.499Z,95379
2019-06-20T07:19:36.060Z,95386
2019-06-20T07:20:45.627Z,95378
2019-06-20T07:21:55.148Z,95383
2019-06-20T07:23:04.708Z,95384
2019-06-20T07:24:14.216Z,95381
2019-06-20T07:25:23.740Z,95382
2019-06-20T07:26:33.250Z,95384
2019-06-20T07:27:42.828Z,95386
2019-06-20T07:28:52.390Z,95383
2019-06-20T07:30:01.903Z,95387
2019-06-20T07:31:11.448Z,95383
2019-06-20T07:32:21.042Z,95386
2019-06-20T07:33:30.635Z,95388
2019-06-20T07:34:40.151Z,95395
2019-06-20T07:35:49.685Z,95391
2019-06-20T07:36:59.258Z,95391
2019-06-20T07:38:08.841Z,95396
2019-06-20T07:39:18.343Z,95398
2019-06-20T07:40:27.871Z,95389
2019-06-20T07:41:37.382Z,95389
2019-06-20T07:42:46.900Z,95388
2019-06-20T07:43:56.409Z,95384
2019-06-20T07:45:05.934Z,95380
2019-06-20T07:46:15.459Z,95381
2019-06-20T07:47:24.983Z,95381
2019-06-20T07:48:34.494Z,95382
2019-06-20T07:49:44.002Z,95384
2019-06-20T07:50:53.525Z,95383
2019-06-20T07:52:03.032Z,95384
2019-06-20T07:53:12.544Z,95383
2019-06-20T07:54:22.054Z,95384
2019-06-20T07:55:31.607Z,95383
2019-06-20T07:56:41.135Z,95385
2019-06-20T07:57:50.655Z,95383
2019-06-20T07:59:00.175Z,95383
2019-06-20T08:00:09.690Z,95386
2019-06-20T08:01:19.279Z,95381
2019-06-20T08:02:28.796Z,95380
2019-06-20T08:03:38.309Z,95373
2019-06-20T08:04:47.810Z,95373
2019-06-20T08:05:57.335Z,95375
2019-06-20T08:07:06.953Z,95372
2019-06-20T08:08:16.390Z,95372
2019-06-20T08:09:40.509Z,95372
2019-06-20T08:10:36.392Z,95373
2019-06-20T08:11:45.908Z,95377
2019-06-20T08:12:55.424Z,95378
2019-06-20T08:14:04.934Z,95373
2019-06-20T08:15:15.930Z,95377
2019-06-20T08:16:23.952Z,95375
2019-06-20T08:17:35.549Z,95374
2019-06-20T08:18:43.006Z,95374
2019-06-20T08:19:52.510Z,95374
2019-06-20T08:21:02.047Z,95378
2019-06-20T08:22:11.557Z,95377
2019-06-20T08:23:21.062Z,95374
2019-06-20T08:24:30.565Z,95376
2019-06-20T08:25:40.084Z,95375
2019-06-20T08:26:49.616Z,95375
2019-06-20T08:28:00.732Z,95378
2019-06-20T08:29:19.940Z,95378
2019-06-20T08:30:20.103Z,95382
2019-06-20T08:31:29.644Z,95378
2019-06-20T08:32:39.159Z,95375
2019-06-20T08:33:48.687Z,95379
2019-06-20T08:35:00.531Z,95375
2019-06-20T08:36:09.677Z,95372
2019-06-20T08:37:19.194Z,95370
2019-06-20T08:38:28.696Z,95368
2019-06-20T08:39:38.197Z,95365
2019-06-20T08:40:47.721Z,95360
2019-06-20T08:41:59.131Z,95363
2019-06-20T08:43:06.722Z,95364
2019-06-20T08:44:16.232Z,95359
2019-06-20T08:45:25.742Z,95362
2019-06-20T08:46:35.272Z,95359
2019-06-20T08:47:44.777Z,95362
2019-06-20T08:48:54.908Z,95363
2019-06-20T08:50:05.994Z,95364
2019-06-20T08:51:14.755Z,95361
2019-06-20T08:52:23.784Z,95363
2019-06-20T08:53:33.291Z,95362
2019-06-20T08:54:42.811Z,95363
2019-06-20T08:55:52.320Z,95363
2019-06-20T08:57:03.474Z,95363
2019-06-20T08:58:11.351Z,95363
2019-06-20T08:59:24.589Z,95360
2019-06-20T09:00:30.379Z,95360
2019-06-20T09:01:39.898Z,95362
2019-06-20T09:02:49.409Z,95363
2019-06-20T09:04:00.130Z,95357
2019-06-20T09:05:09.423Z,95365
2019-06-20T09:06:18.935Z,95363
2019-06-20T09:07:28.443Z,95363
2019-06-20T09:08:37.953Z,95365
2019-06-20T09:09:47.475Z,95358
2019-06-20T09:10:57.446Z,95357
2019-06-20T09:12:06.727Z,95357
2019-06-20T09:13:16.329Z,95357
2019-06-20T09:14:25.841Z,95358
2019-06-20T09:15:35.371Z,95352
2019-06-20T09:16:44.891Z,95359
2019-06-20T09:17:56.714Z,95356
2019-06-20T09:19:06.001Z,95351
2019-06-20T09:20:15.516Z,95354
2019-06-20T09:21:25.110Z,95354
2019-06-20T09:22:34.646Z,95358
2019-06-20T09:23:44.168Z,95357
2019-06-20T09:24:55.083Z,95357
2019-06-20T09:26:04.211Z,95358
2019-06-20T09:27:13.793Z,95359
2019-06-20T09:28:23.310Z,95355
2019-06-20T09:29:41.296Z,95354
2019-06-20T09:30:43.378Z,95362
2019-06-20T09:31:54.029Z,95353
2019-06-20T09:33:04.155Z,95355
2019-06-20T09:34:13.066Z,95354
2019-06-20T09:35:22.613Z,95354
2019-06-20T09:36:32.268Z,95354
2019-06-20T09:37:41.795Z,95360
2019-06-20T09:38:52.414Z,95360
2019-06-20T09:40:03.565Z,95366
2019-06-20T09:41:11.559Z,95370
2019-06-20T09:42:21.103Z,95367
2019-06-20T09:43:30.627Z,95361
2019-06-20T09:44:40.137Z,95367
2019-06-20T09:45:50.987Z,95365
2019-06-20T09:46:59.238Z,95373
2019-06-20T09:48:08.818Z,95369
2019-06-20T09:49:18.349Z,95370
2019-06-20T09:50:27.911Z,95367
2019-06-20T09:51:37.475Z,95367
2019-06-20T09:52:49.669Z,95370
2019-06-20T09:53:58.179Z,95365
2019-06-20T09:55:07.016Z,95371
2019-06-20T09:56:17.147Z,95374
2019-06-20T09:57:26.773Z,95378
2019-06-20T09:58:36.363Z,95376
2019-06-20T09:59:56.905Z,95372
2019-06-20T10:00:57.431Z,95370
2019-06-20T10:02:06.005Z,95366
2019-06-20T10:03:15.527Z,95368
2019-06-20T10:04:25.045Z,95363
2019-06-20T10:05:34.553Z,95365
2019-06-20T10:06:44.090Z,95363
2019-06-20T10:07:54.481Z,95368
2019-06-20T10:09:03.093Z,95364
2019-06-20T10:10:12.618Z,95370
2019-06-20T10:11:22.151Z,95368
2019-06-20T10:12:31.719Z,95365
2019-06-20T10:13:41.224Z,95366
2019-06-20T10:14:51.558Z,95365
2019-06-20T10:16:00.262Z,95371
2019-06-20T10:17:09.861Z,95368
2019-06-20T10:18:19.370Z,95368
2019-06-20T10:19:28.883Z,95374
2019-06-20T10:20:39.088Z,95371
2019-06-20T10:21:49.597Z,95375
2019-06-20T10:22:59.068Z,95371
2019-06-20T10:24:09.521Z,95369
2019-06-20T10:25:19.065Z,95370
2019-06-20T10:26:28.617Z,95367
2019-06-20T10:27:39.208Z,95367
2019-06-20T10:28:51.300Z,95368
2019-06-20T10:30:13.339Z,95369
2019-06-20T10:31:10.672Z,95370
2019-06-20T10:32:20.208Z,95370
2019-06-20T10:33:29.730Z,95364
2019-06-20T10:34:39.278Z,95365
2019-06-20T10:35:50.350Z,95366
2019-06-20T10:37:00.351Z,95368
2019-06-20T10:38:09.904Z,95367
2019-06-20T10:39:19.448Z,95366
2019-06-20T10:40:28.957Z,95366
2019-06-20T10:41:38.571Z,95365
2019-06-20T10:42:50.228Z,95365
2019-06-20T10:43:59.669Z,95361
2019-06-20T10:45:09.209Z,95360
2019-06-20T10:46:18.855Z,95362
2019-06-20T10:47:32.565Z,95364
2019-06-20T10:48:39.005Z,95369
2019-06-20T10:49:50.283Z,95361
2019-06-20T10:50:58.121Z,95366
2019-06-20T10:52:08.646Z,95365
2019-06-20T10:53:18.183Z,95363
2019-06-20T10:54:27.717Z,95365
2019-06-20T10:55:37.293Z,95364
2019-06-20T10:56:48.823Z,95363
2019-06-20T10:57:57.689Z,95362
2019-06-20T10:59:07.224Z,95357
2019-06-20T11:00:29.627Z,95357
2019-06-20T11:01:27.391Z,95354
2019-06-20T11:02:36.931Z,95354
2019-06-20T11:03:47.824Z,95355
2019-06-20T11:04:56.969Z,95351
2019-06-20T11:06:06.489Z,95349
2019-06-20T11:07:16.088Z,95358
2019-06-20T11:08:25.605Z,95355
2019-06-20T11:09:35.180Z,95357
2019-06-20T11:10:45.094Z,95355
2019-06-20T11:11:54.304Z,95361
2019-06-20T11:13:03.822Z,95357
2019-06-20T11:14:13.326Z,95360
2019-06-20T11:15:22.859Z,95358
2019-06-20T11:16:32.452Z,95358
2019-06-20T11:17:44.140Z,95354
2019-06-20T11:18:52.609Z,95361
2019-06-20T11:20:02.624Z,95359
2019-06-20T11:21:11.654Z,95364
2019-06-20T11:22:21.202Z,95358
2019-06-20T11:23:30.802Z,95356
2019-06-20T11:24:41.371Z,95349
2019-06-20T11:25:50.956Z,95352
2019-06-20T11:27:00.560Z,95348
2019-06-20T11:28:10.084Z,95339
2019-06-20T11:29:19.592Z,95341
2019-06-20T11:30:29.109Z,95343
2019-06-20T11:31:43.325Z,95342
2019-06-20T11:32:50.269Z,95336
2019-06-20T11:33:59.798Z,95335
2019-06-20T11:35:09.318Z,95332
2019-06-20T11:36:18.943Z,95328
2019-06-20T11:37:28.474Z,95333
2019-06-20T11:38:39.484Z,95335
2019-06-20T11:39:51.260Z,95325
2019-06-20T11:40:59.264Z,95323
2019-06-20T11:42:08.855Z,95319
2019-06-20T11:43:18.394Z,95324
2019-06-20T11:44:27.952Z,95316
2019-06-20T11:45:38.911Z,95319
2019-06-20T11:46:47.996Z,95323
2019-06-20T11:47:57.523Z,95319
2019-06-20T11:49:07.079Z,95318
2019-06-20T11:50:16.629Z,95312
2019-06-20T11:51:26.161Z,95319
2019-06-20T11:52:40.953Z,95314
2019-06-20T11:53:47.166Z,95311
2019-06-20T11:54:56.681Z,95305
2019-06-20T11:56:06.283Z,95311
2019-06-20T11:57:15.891Z,95308
2019-06-20T11:58:25.448Z,95308
2019-06-20T11:59:34.976Z,95307
2019-06-20T12:00:44.505Z,95307
2019-06-20T12:01:55.011Z,95298
2019-06-20T12:03:04.556Z,95292
2019-06-20T12:04:14.093Z,95288
2019-06-20T12:05:23.679Z,95286
2019-06-20T12:06:33.187Z,95285
2019-06-20T12:07:45.487Z,95284
2019-06-20T12:08:53.307Z,95283
2019-06-20T12:10:02.822Z,95270
2019-06-20T12:11:12.344Z,95272
2019-06-20T12:12:21.989Z,95267
2019-06-20T12:13:31.592Z,95267
2019-06-20T12:14:42.568Z,95268
2019-06-20T12:15:51.663Z,95272
2019-06-20T12:17:01.214Z,95267
2019-06-20T12:18:10.755Z,95260
2019-06-20T12:19:20.334Z,95265
2019-06-20T12:20:29.920Z,95267
2019-06-20T12:21:40.739Z,95270
2019-06-20T12:22:50.716Z,95265
2019-06-20T12:23:59.462Z,95263
2019-06-20T12:25:09.973Z,95264
2019-06-20T12:26:19.490Z,95264
2019-06-20T12:27:29.061Z,95267
2019-06-20T12:28:39.583Z,95265
2019-06-20T12:29:49.322Z,95263
2019-06-20T12:30:57.594Z,95265
2019-06-20T12:32:10.042Z,95269
2019-06-20T12:33:17.672Z,95263
2019-06-20T12:34:27.198Z,95264
2019-06-20T12:35:37.805Z,95260
2019-06-20T12:36:48.481Z,95262
2019-06-20T12:37:56.716Z,95261
2019-06-20T12:39:06.223Z,95263
2019-06-20T12:40:15.750Z,95256
2019-06-20T12:41:25.279Z,95252
2019-06-20T12:42:34.823Z,95249
2019-06-20T12:43:46.305Z,95247
2019-06-20T12:44:54.918Z,95243
2019-06-20T12:46:04.513Z,95252
2019-06-20T12:47:14.006Z,95244
2019-06-20T12:48:23.547Z,95244
2019-06-20T12:49:33.085Z,95244
2019-06-20T12:50:45.000Z,95249
2019-06-20T12:51:53.119Z,95246
2019-06-20T12:53:02.741Z,95248
2019-06-20T12:54:12.263Z,95248
2019-06-20T12:55:21.797Z,95251
2019-06-20T12:56:31.345Z,95252
2019-06-20T12:57:42.233Z,95250
2019-06-20T12:58:51.400Z,95249
2019-06-20T13:00:00.940Z,95252
2019-06-20T13:01:10.525Z,95257
2019-06-20T13:02:20.012Z,95262
2019-06-20T13:03:29.550Z,95266
2019-06-20T13:04:39.913Z,95267
2019-06-20T13:05:49.039Z,95270
2019-06-20T13:06:58.219Z,95269
2019-06-20T13:08:07.756Z,95260
2019-06-20T13:09:17.298Z,95258
2019-06-20T13:10:26.827Z,95258
2019-06-20T13:11:37.596Z,95256
2019-06-20T13:12:46.334Z,95255
2019-06-20T13:13:55.427Z,95257
2019-06-20T13:15:04.954Z,95255
2019-06-20T13:16:14.485Z,95247
2019-06-20T13:17:23.996Z,95247
2019-06-20T13:18:33.556Z,95252
2019-06-20T13:19:44.398Z,95249
2019-06-20T13:20:53.657Z,95248
2019-06-20T13:22:03.225Z,95246
2019-06-20T13:23:12.744Z,95244
2019-06-20T13:24:22.266Z,95238
2019-06-20T13:25:31.775Z,95233
2019-06-20T13:26:42.427Z,95226
2019-06-20T13:27:52.827Z,95226
2019-06-20T13:29:04.296Z,95214
2019-06-20T13:30:11.920Z,95214
2019-06-20T13:31:21.464Z,95215
2019-06-20T13:32:30.978Z,95212
2019-06-20T13:33:42.404Z,95205
2019-06-20T13:34:52.001Z,95209
2019-06-20T13:36:01.526Z,95197
2019-06-20T13:37:11.063Z,95203
2019-06-20T13:38:20.576Z,95201
2019-06-20T13:39:30.121Z,95195
2019-06-20T13:40:41.163Z,95192
2019-06-20T13:41:50.355Z,95195
2019-06-20T13:42:59.625Z,95202
2019-06-20T13:44:09.147Z,95221
2019-06-20T13:45:19.678Z,95222
2019-06-20T13:46:29.206Z,95236
2019-06-20T13:47:39.802Z,95238
2019-06-20T13:48:49.600Z,95239
2019-06-20T13:49:57.755Z,95235
2019-06-20T13:51:07.329Z,95238
2019-06-20T13:52:16.852Z,95233
2019-06-20T13:53:26.520Z,95231
2019-06-20T13:54:35.921Z,95231
2019-06-20T13:55:47.646Z,95237
2019-06-20T13:56:56.257Z,95241
2019-06-20T13:58:05.505Z,95242
2019-06-20T13:59:15.021Z,95244
2019-06-20T14:00:24.532Z,95247
2019-06-20T14:01:34.047Z,95248
2019-06-20T14:02:46.477Z,95263
2019-06-20T14:03:55.129Z,95267
2019-06-20T14:05:04.640Z,95259
2019-06-20T14:06:14.155Z,95272
2019-06-20T14:07:23.679Z,95273
2019-06-20T14:08:33.224Z,95273
2019-06-20T14:09:43.192Z,95281
2019-06-20T14:10:52.430Z,95282
2019-06-20T14:12:01.771Z,95286
2019-06-20T14:13:18.908Z,95291
2019-06-20T14:14:22.770Z,95293
2019-06-20T14:15:32.282Z,95301
2019-06-20T14:16:42.973Z,95299
2019-06-20T14:17:51.345Z,95303
2019-06-20T14:19:01.661Z,95314
2019-06-20T14:20:10.343Z,95328
2019-06-20T14:21:19.862Z,95351
2019-06-20T14:22:29.383Z,95388
2019-06-20T14:23:38.908Z,95400
2019-06-20T14:24:50.732Z,95445
2019-06-20T14:25:58.920Z,95391
2019-06-20T14:27:08.433Z,95389
2019-06-20T14:28:17.985Z,95364
2019-06-20T14:29:27.569Z,95421
2019-06-20T14:30:37.274Z,95409
2019-06-20T14:31:49.128Z,95398
2019-06-20T14:32:57.308Z,95412
2019-06-20T14:34:06.860Z,95459
2019-06-20T14:35:16.607Z,95454
2019-06-20T14:36:26.149Z,95453
2019-06-20T14:37:35.714Z,95448
2019-06-20T14:38:47.348Z,95449
2019-06-20T14:39:57.071Z,95450
2019-06-20T14:41:06.320Z,95477
2019-06-20T14:42:15.875Z,95469
2019-06-20T14:43:25.447Z,95489
2019-06-20T14:44:34.971Z,95470
2019-06-20T14:45:45.455Z,95463
2019-06-20T14:46:55.018Z,95461
2019-06-20T14:48:04.556Z,95447
2019-06-20T14:49:14.108Z,95453
2019-06-20T14:50:23.634Z,95449
2019-06-20T14:51:33.153Z,95446
2019-06-20T14:52:44.138Z,95445
2019-06-20T14:53:54.483Z,95435
2019-06-20T14:55:02.029Z,95424
2019-06-20T14:56:11.625Z,95430